Time;durP1;ratioP1;P1;durP2;ratioP2;P2;SDS_P1;SDS_P2;PMS_P1;PMS_P2;Temp;Humidity;BMP_temperature;BMP_pressure;BME280_temperature;BME280_humidity;BME280_pressure;Samples;Min_cycle;Max_cycle;Signal;HPM_P1;HPM_P2
2022/04/05 00:00:27;;;;;;;3.42;3.13;;;10.20;93.00;;;;;;5051013;28;20140;-30
2022/04/05 00:02:52;;;;;;;3.08;2.78;;;10.10;92.70;;;;;;5052559;28;20033;-28
2022/04/05 00:05:18;;;;;;;2.72;2.53;;;10.00;92.60;;;;;;5052212;28;20401;-28
2022/04/05 00:07:44;;;;;;;3.08;2.78;;;9.80;92.60;;;;;;5052583;28;20150;-28
2022/04/05 00:10:10;;;;;;;2.60;2.40;;;9.70;92.70;;;;;;5052305;28;20049;-29
2022/04/05 00:12:35;;;;;;;2.33;2.10;;;9.50;92.60;;;;;;5052235;28;20424;-31
2022/04/05 00:15:01;;;;;;;2.40;2.20;;;9.40;92.90;;;;;;5052382;28;20397;-46
2022/04/05 00:17:27;;;;;;;1.98;1.73;;;9.30;92.60;;;;;;5052252;28;20025;-46
2022/04/05 00:19:52;;;;;;;1.98;1.50;;;9.20;92.70;;;;;;5052255;28;20450;-46
2022/04/05 00:22:18;;;;;;;2.05;1.73;;;9.10;92.80;;;;;;5052185;28;20052;-46
2022/04/05 00:24:43;;;;;;;1.83;1.40;;;9.10;92.80;;;;;;5052364;28;20048;-45
2022/04/05 00:27:09;;;;;;;1.48;1.08;;;9.00;92.80;;;;;;5050868;28;20071;-46
2022/04/05 00:29:34;;;;;;;1.40;1.30;;;8.90;92.80;;;;;;5052258;28;20025;-46
2022/04/05 00:32:00;;;;;;;3.22;1.00;;;8.90;92.80;;;;;;5052326;28;20096;-46
2022/04/05 00:34:26;;;;;;;1.38;1.20;;;8.90;92.80;;;;;;5051009;28;20538;-46
2022/04/05 00:36:53;;;;;;;1.60;0.88;;;8.80;92.80;;;;;;5052079;28;20120;-46
2022/04/05 00:39:19;;;;;;;1.75;1.00;;;8.80;92.90;;;;;;5052089;28;20104;-46
2022/04/05 00:41:45;;;;;;;0.88;0.80;;;8.80;92.90;;;;;;5054116;28;20075;-46
2022/04/05 00:44:10;;;;;;;1.50;1.00;;;8.80;92.80;;;;;;5055623;28;20025;-46
2022/04/05 00:46:36;;;;;;;0.70;0.70;;;8.80;92.90;;;;;;5055668;28;20029;-45
2022/04/05 00:49:02;;;;;;;1.10;0.90;;;8.80;92.80;;;;;;5055571;28;20021;-46
2022/04/05 00:51:28;;;;;;;1.00;0.75;;;8.70;93.10;;;;;;5055560;28;20031;-46
2022/04/05 00:53:57;;;;;;;1.10;0.90;;;8.80;92.80;;;;;;5055431;28;20033;-46
2022/04/05 00:56:26;;;;;;;1.30;0.90;;;8.80;92.80;;;;;;5054241;28;20104;-46
2022/04/05 00:58:54;;;;;;;0.80;0.80;;;8.70;93.00;;;;;;5054014;28;20057;-46
2022/04/05 01:01:22;;;;;;;1.73;0.77;;;8.70;92.70;;;;;;5054084;28;20024;-46
2022/04/05 01:03:50;;;;;;;1.75;1.05;;;8.70;92.80;;;;;;5055202;28;20040;-46
2022/04/05 01:06:17;;;;;;;2.45;1.10;;;8.70;92.80;;;;;;5055282;28;20048;-46
2022/04/05 01:08:46;;;;;;;1.90;1.20;;;8.70;92.80;;;;;;5055204;28;20017;-46
2022/04/05 01:11:12;;;;;;;1.13;1.02;;;8.70;92.70;;;;;;5055492;28;20048;-46
2022/04/05 01:13:37;;;;;;;1.00;0.90;;;8.70;92.70;;;;;;5055390;28;20063;-46
2022/04/05 01:16:03;;;;;;;2.10;1.13;;;8.70;92.70;;;;;;5055164;28;20025;-46
2022/04/05 01:18:29;;;;;;;1.10;1.00;;;8.70;92.70;;;;;;5055066;28;20056;-46
2022/04/05 01:20:56;;;;;;;2.55;1.10;;;8.60;92.70;;;;;;5053730;28;20393;-46
2022/04/05 01:23:23;;;;;;;1.55;1.08;;;8.70;92.70;;;;;;5055269;28;20104;-46
2022/04/05 01:25:49;;;;;;;2.13;1.10;;;8.70;92.70;;;;;;5053561;28;20071;-46
2022/04/05 01:28:15;;;;;;;1.27;1.17;;;8.70;92.70;;;;;;5054890;28;20025;-47
2022/04/05 01:30:41;;;;;;;1.17;1.00;;;8.70;92.70;;;;;;5054716;28;20025;-46
2022/04/05 01:33:07;;;;;;;1.40;1.30;;;8.70;92.60;;;;;;5054849;28;20032;-46
2022/04/05 01:35:34;;;;;;;1.45;1.10;;;8.70;92.60;;;;;;5054736;28;20389;-46
2022/04/05 01:38:02;;;;;;;2.17;1.27;;;8.70;92.70;;;;;;5054931;28;20021;-46
2022/04/05 01:40:27;;;;;;;2.03;1.40;;;8.70;92.60;;;;;;5054578;28;20085;-46
2022/04/05 01:42:53;;;;;;;1.77;1.38;;;8.80;92.60;;;;;;5054536;28;20469;-46
2022/04/05 01:45:19;;;;;;;1.13;1.02;;;8.80;92.60;;;;;;5054339;28;20021;-46
2022/04/05 01:47:46;;;;;;;1.55;1.45;;;8.80;92.60;;;;;;5054734;28;20108;-47
2022/04/05 01:50:12;;;;;;;1.80;1.20;;;8.80;92.50;;;;;;5054467;28;20020;-46
2022/04/05 01:52:37;;;;;;;2.35;1.30;;;8.80;92.50;;;;;;5053661;28;20358;-46
2022/04/05 01:55:05;;;;;;;1.50;1.23;;;8.80;92.50;;;;;;5054414;28;20033;-46
2022/04/05 01:57:31;;;;;;;3.38;1.25;;;8.80;92.50;;;;;;5054325;28;20073;-46
2022/04/05 01:59:56;;;;;;;4.80;1.45;;;8.80;92.40;;;;;;5054118;28;20052;-46
2022/04/05 02:02:22;;;;;;;2.58;1.30;;;8.80;92.40;;;;;;5054220;28;20013;-46
2022/04/05 02:04:47;;;;;;;1.75;1.20;;;8.80;92.40;;;;;;5054025;28;20064;-46
2022/04/05 02:07:16;;;;;;;1.77;1.17;;;8.80;92.40;;;;;;5054013;28;20124;-46
2022/04/05 02:09:42;;;;;;;3.78;1.17;;;8.90;92.50;;;;;;5054012;28;20017;-46
2022/04/05 02:12:09;;;;;;;2.97;1.35;;;8.80;92.40;;;;;;5053969;28;20036;-46
2022/04/05 02:14:35;;;;;;;3.13;1.55;;;8.90;92.40;;;;;;5053960;28;20024;-46
2022/04/05 02:17:01;;;;;;;1.30;1.20;;;8.90;92.40;;;;;;5053938;28;20478;-46
2022/04/05 02:19:26;;;;;;;2.35;1.30;;;8.80;92.40;;;;;;5054005;28;20028;-45
2022/04/05 02:21:52;;;;;;;1.67;1.30;;;8.90;92.40;;;;;;5053830;28;20441;-46
2022/04/05 02:24:17;;;;;;;2.00;1.30;;;8.90;92.40;;;;;;5052382;28;20025;-46
2022/04/05 02:26:43;;;;;;;2.75;1.48;;;8.90;92.30;;;;;;5052332;28;20389;-46
2022/04/05 02:29:09;;;;;;;1.73;1.50;;;8.90;92.30;;;;;;5053991;28;20028;-46
2022/04/05 02:31:34;;;;;;;2.90;1.50;;;8.80;92.30;;;;;;5053866;28;20021;-47
2022/04/05 02:34:00;;;;;;;2.13;1.50;;;8.90;92.30;;;;;;5053576;28;20029;-46
2022/04/05 02:36:26;;;;;;;2.20;1.35;;;8.90;92.30;;;;;;5053786;28;20020;-46
2022/04/05 02:38:52;;;;;;;1.73;1.50;;;8.90;92.30;;;;;;5053495;28;20108;-46
2022/04/05 02:41:17;;;;;;;2.90;1.40;;;8.90;92.30;;;;;;5053755;28;20074;-46
2022/04/05 02:43:44;;;;;;;2.08;1.40;;;8.90;92.30;;;;;;5053291;28;20025;-46
2022/04/05 02:46:11;;;;;;;3.28;1.38;;;8.90;92.30;;;;;;5053285;28;20112;-46
2022/04/05 02:48:43;;;;;;;2.17;1.30;;;8.90;92.30;;;;;;5051997;28;20025;-46
2022/04/05 02:51:15;;;;;;;2.08;1.15;;;8.90;92.30;;;;;;5052029;28;20559;-46
2022/04/05 02:53:41;;;;;;;4.45;1.60;;;8.90;92.30;;;;;;5053227;28;20025;-46
2022/04/05 02:56:08;;;;;;;2.65;1.50;;;8.90;92.20;;;;;;5051924;28;20108;-46
2022/04/05 02:58:36;;;;;;;3.33;1.65;;;8.90;92.20;;;;;;5052899;28;20021;-46
2022/04/05 03:01:04;;;;;;;3.40;1.60;;;8.90;92.20;;;;;;5053159;28;20458;-46
2022/04/05 03:03:29;;;;;;;3.13;1.50;;;9.00;92.30;;;;;;5052444;28;20393;-46
2022/04/05 03:05:55;;;;;;;2.47;1.50;;;9.00;92.30;;;;;;5053326;28;20017;-46
2022/04/05 03:08:22;;;;;;;2.83;1.45;;;9.00;92.20;;;;;;5053286;28;20104;-46
2022/04/05 03:10:47;;;;;;;2.08;1.65;;;9.00;92.50;;;;;;5053220;28;20116;-46
2022/04/05 03:13:13;;;;;;;2.70;1.80;;;9.00;92.20;;;;;;5052987;28;20484;-40
2022/04/05 03:15:39;;;;;;;2.45;1.80;;;9.00;92.20;;;;;;5051993;28;20021;-39
2022/04/05 03:18:05;;;;;;;3.05;1.80;;;9.00;92.10;;;;;;5051643;28;20074;-40
2022/04/05 03:20:31;;;;;;;2.05;1.90;;;9.00;92.20;;;;;;5052870;28;20028;-38
2022/04/05 03:22:59;;;;;;;2.95;1.67;;;9.00;92.20;;;;;;5053094;28;20024;-40
2022/04/05 03:25:24;;;;;;;2.42;1.63;;;9.10;92.20;;;;;;5053016;28;20036;-39
2022/04/05 03:27:50;;;;;;;3.58;1.92;;;9.10;92.20;;;;;;5052764;28;20017;-39
2022/04/05 03:30:18;;;;;;;2.13;1.65;;;9.10;92.20;;;;;;5052741;28;20576;-39
2022/04/05 03:32:43;;;;;;;2.83;1.90;;;9.10;92.10;;;;;;5052752;28;20033;-39
2022/04/05 03:35:09;;;;;;;2.63;1.70;;;9.10;92.10;;;;;;5052731;28;20036;-39
2022/04/05 03:37:35;;;;;;;2.90;1.60;;;9.10;92.10;;;;;;5052739;28;20029;-40
2022/04/05 03:40:02;;;;;;;2.95;1.98;;;9.00;92.10;;;;;;5052724;28;20104;-40
2022/04/05 03:42:27;;;;;;;2.38;1.85;;;9.00;92.10;;;;;;5052871;28;20574;-39
2022/04/05 03:44:53;;;;;;;4.90;2.10;;;9.00;92.10;;;;;;5052661;28;20064;-39
2022/04/05 03:47:19;;;;;;;4.28;1.70;;;9.00;92.10;;;;;;5052643;28;20507;-40
2022/04/05 03:49:45;;;;;;;2.50;1.75;;;9.00;92.10;;;;;;5052656;28;20028;-40
2022/04/05 03:52:10;;;;;;;3.63;1.73;;;9.00;92.10;;;;;;5052660;28;20021;-39
2022/04/05 03:54:36;;;;;;;2.50;1.90;;;9.00;92.10;;;;;;5052490;28;20151;-39
2022/04/05 03:57:02;;;;;;;2.65;1.90;;;9.00;92.10;;;;;;5052589;28;20481;-40
2022/04/05 03:59:28;;;;;;;2.70;1.98;;;8.90;92.10;;;;;;5052336;28;20132;-38
2022/04/05 04:01:54;;;;;;;3.55;1.98;;;9.00;92.10;;;;;;5052787;28;20056;-47
2022/04/05 04:04:19;;;;;;;2.72;2.10;;;9.00;92.10;;;;;;5052434;28;20460;-39
2022/04/05 04:06:45;;;;;;;3.35;2.30;;;8.90;92.10;;;;;;5052460;28;20508;-39
2022/04/05 04:09:11;;;;;;;3.30;2.20;;;8.90;92.10;;;;;;5052433;28;20033;-39
2022/04/05 04:11:40;;;;;;;3.53;2.10;;;9.00;92.10;;;;;;5052278;28;20032;-39
2022/04/05 04:14:06;;;;;;;3.47;2.25;;;9.00;92.10;;;;;;5052612;28;20115;-39
2022/04/05 04:16:31;;;;;;;2.45;2.00;;;9.00;92.10;;;;;;5055428;28;20078;-40
2022/04/05 04:18:57;;;;;;;3.50;2.15;;;9.00;92.10;;;;;;5056098;28;20029;-40
2022/04/05 04:21:23;;;;;;;3.22;2.63;;;9.00;92.10;;;;;;5056154;28;20111;-39
2022/04/05 04:23:48;;;;;;;3.45;2.03;;;9.00;92.10;;;;;;5056036;28;20032;-40
2022/04/05 04:26:14;;;;;;;3.58;2.03;;;9.00;92.10;;;;;;5056051;28;20017;-39
2022/04/05 04:28:39;;;;;;;3.03;1.90;;;9.00;92.00;;;;;;5054652;28;20115;-40
2022/04/05 04:31:05;;;;;;;2.67;1.85;;;9.00;92.10;;;;;;5055953;28;20175;-40
2022/04/05 04:33:30;;;;;;;3.58;1.90;;;9.00;92.00;;;;;;5055710;28;20397;-39
2022/04/05 04:35:57;;;;;;;3.42;1.85;;;9.00;92.10;;;;;;5056237;28;20481;-39
2022/04/05 04:38:23;;;;;;;4.50;2.22;;;9.00;92.10;;;;;;5055814;28;20025;-39
2022/04/05 04:40:50;;;;;;;2.17;1.80;;;9.10;92.10;;;;;;5055961;28;20040;-39
2022/04/05 04:43:17;;;;;;;3.53;2.00;;;9.10;92.10;;;;;;5055895;28;20529;-40
2022/04/05 04:45:43;;;;;;;2.47;1.75;;;9.10;92.10;;;;;;5055597;28;20021;-40
2022/04/05 04:48:09;;;;;;;3.00;2.05;;;9.10;92.00;;;;;;5054292;28;20032;-39
2022/04/05 04:50:34;;;;;;;4.82;2.20;;;9.10;92.00;;;;;;5055511;28;20385;-39
2022/04/05 04:53:00;;;;;;;2.65;2.30;;;9.20;92.00;;;;;;5055745;28;20033;-40
2022/04/05 04:55:27;;;;;;;7.15;2.70;;;9.20;92.00;;;;;;5055714;28;20485;-39
2022/04/05 04:57:54;;;;;;;4.93;2.50;;;9.20;92.00;;;;;;5055728;28;20040;-39
2022/04/05 05:00:20;;;;;;;5.68;3.05;;;9.20;92.00;;;;;;5055227;28;20504;-40
2022/04/05 05:02:46;;;;;;;4.68;2.90;;;9.20;92.00;;;;;;5055599;28;20096;-40
2022/04/05 05:05:12;;;;;;;3.88;3.28;;;9.20;92.00;;;;;;5055160;28;20053;-40
2022/04/05 05:07:39;;;;;;;5.75;3.60;;;9.20;92.00;;;;;;5055234;28;20161;-40
2022/04/05 05:10:07;;;;;;;6.18;3.75;;;9.20;92.00;;;;;;5055241;28;20119;-40
2022/04/05 05:12:33;;;;;;;6.88;3.90;;;9.30;92.00;;;;;;5055397;28;20052;-40
2022/04/05 05:14:59;;;;;;;5.85;4.05;;;9.30;92.00;;;;;;5055024;28;20389;-40
2022/04/05 05:17:25;;;;;;;5.43;4.57;;;9.30;92.00;;;;;;5054956;28;20029;-39
2022/04/05 05:19:50;;;;;;;7.60;4.20;;;9.30;92.00;;;;;;5054945;28;20044;-40
2022/04/05 05:22:16;;;;;;;5.43;4.30;;;9.30;92.00;;;;;;5054951;28;20412;-40
2022/04/05 05:24:41;;;;;;;6.75;4.70;;;9.30;92.00;;;;;;5054745;28;20025;-40
2022/04/05 05:27:07;;;;;;;8.80;4.50;;;9.40;92.00;;;;;;5053830;28;20033;-40
2022/04/05 05:29:32;;;;;;;7.60;5.03;;;9.40;92.00;;;;;;5054739;28;20021;-39
2022/04/05 05:31:58;;;;;;;6.35;4.78;;;9.30;91.90;;;;;;5054689;28;20079;-40
2022/04/05 05:34:24;;;;;;;5.78;4.82;;;9.40;92.00;;;;;;5054727;28;20478;-39
2022/04/05 05:36:50;;;;;;;6.97;5.03;;;9.40;91.90;;;;;;5054553;28;20028;-39
2022/04/05 05:39:16;;;;;;;6.25;5.10;;;9.40;91.90;;;;;;5054607;28;20128;-41
2022/04/05 05:41:41;;;;;;;6.53;5.50;;;9.30;91.90;;;;;;5054865;28;20033;-40
2022/04/05 05:44:07;;;;;;;7.95;5.32;;;9.30;91.90;;;;;;5054560;28;20035;-40
2022/04/05 05:46:32;;;;;;;7.60;5.60;;;9.40;92.00;;;;;;5054419;28;20061;-38
2022/04/05 05:48:58;;;;;;;8.10;6.07;;;9.30;92.00;;;;;;5054463;28;20500;-40
2022/04/05 05:51:24;;;;;;;7.63;5.82;;;9.30;92.00;;;;;;5054719;28;20029;-41
2022/04/05 05:53:49;;;;;;;8.15;5.70;;;9.30;92.00;;;;;;5054363;28;20035;-40
2022/04/05 05:56:15;;;;;;;7.47;5.40;;;9.30;92.00;;;;;;5053082;28;20496;-39
2022/04/05 05:58:40;;;;;;;6.68;4.80;;;9.40;92.00;;;;;;5054387;28;20384;-40
2022/04/05 06:01:06;;;;;;;6.78;5.60;;;9.40;92.00;;;;;;5054216;28;20128;-40
2022/04/05 06:03:32;;;;;;;5.88;4.70;;;9.40;92.00;;;;;;5054065;28;20068;-40
2022/04/05 06:05:57;;;;;;;7.43;5.70;;;9.40;92.00;;;;;;5054080;28;20100;-40
2022/04/05 06:08:23;;;;;;;8.30;5.85;;;9.40;92.00;;;;;;5054002;28;20487;-39
2022/04/05 06:10:49;;;;;;;8.45;6.22;;;9.40;91.90;;;;;;5054037;28;20496;-40
2022/04/05 06:13:15;;;;;;;9.57;6.82;;;9.40;92.00;;;;;;5052699;28;20035;-40
2022/04/05 06:15:40;;;;;;;9.13;6.70;;;9.40;91.90;;;;;;5052685;28;20477;-39
2022/04/05 06:18:06;;;;;;;8.63;6.45;;;9.40;92.00;;;;;;5053924;28;20024;-40
2022/04/05 06:20:32;;;;;;;16.05;9.00;;;9.40;92.00;;;;;;5053855;28;20025;-40
2022/04/05 06:23:00;;;;;;;37.75;11.65;;;9.40;92.00;;;;;;5053812;28;20558;-40
2022/04/05 06:25:33;;;;;;;12.70;8.60;;;9.50;92.10;;;;;;5053884;28;20112;-38
2022/04/05 06:28:02;;;;;;;12.05;8.40;;;9.50;92.00;;;;;;5054070;28;20412;-40
2022/04/05 06:30:28;;;;;;;11.05;7.90;;;9.50;92.00;;;;;;5053359;28;20055;-40
2022/04/05 06:33:23;;;;;;;10.70;7.72;;;9.50;92.00;;;;;;5053623;28;20091;-40
2022/04/05 06:35:56;;;;;;;10.32;7.97;;;9.50;92.00;;;;;;5049006;28;20048;-39
2022/04/05 06:38:22;;;;;;;10.20;7.72;;;9.50;92.00;;;;;;5053683;28;20086;-40
2022/04/05 06:40:49;;;;;;;9.13;7.50;;;9.60;92.10;;;;;;5053426;28;20028;-39
2022/04/05 06:43:16;;;;;;;9.48;8.07;;;9.60;92.10;;;;;;5053622;28;20048;-40
2022/04/05 06:45:43;;;;;;;9.10;7.18;;;9.60;92.10;;;;;;5053424;28;20028;-39
2022/04/05 06:48:09;;;;;;;9.75;7.30;;;9.70;92.10;;;;;;5051854;28;20521;-40
2022/04/05 06:50:36;;;;;;;8.10;7.10;;;9.80;92.20;;;;;;5053083;28;20100;-38
2022/04/05 06:53:02;;;;;;;9.60;7.80;;;9.80;92.10;;;;;;5053436;28;20056;-40
2022/04/05 06:55:28;;;;;;;9.30;7.80;;;9.80;92.20;;;;;;5053057;28;20071;-39
2022/04/05 06:57:55;;;;;;;10.18;7.82;;;9.90;92.30;;;;;;5053127;28;20025;-40
2022/04/05 07:00:23;;;;;;;9.90;7.78;;;9.90;92.20;;;;;;5051730;28;20045;-40
2022/04/05 07:02:49;;;;;;;8.20;7.13;;;9.90;92.20;;;;;;5052987;28;20454;-40
2022/04/05 07:05:15;;;;;;;10.80;8.00;;;10.00;92.30;;;;;;5052972;28;20035;-39
2022/04/05 07:07:41;;;;;;;12.85;8.43;;;10.00;92.30;;;;;;5053012;28;20053;-39
2022/04/05 07:10:09;;;;;;;10.60;7.93;;;10.00;92.30;;;;;;5052942;28;20028;-40
2022/04/05 07:12:35;;;;;;;12.07;8.90;;;10.10;92.40;;;;;;5052953;28;20036;-40
2022/04/05 07:15:01;;;;;;;10.40;7.97;;;10.10;92.40;;;;;;5052932;28;20025;-40
2022/04/05 07:17:26;;;;;;;12.48;9.38;;;10.10;92.40;;;;;;5052967;28;20040;-40
2022/04/05 07:19:52;;;;;;;14.32;8.50;;;10.20;92.40;;;;;;5052915;28;20025;-39
2022/04/05 07:22:19;;;;;;;13.90;8.95;;;10.20;92.40;;;;;;5053145;28;20029;-40
2022/04/05 07:24:46;;;;;;;12.15;8.80;;;10.20;92.40;;;;;;5053057;28;20067;-40
2022/04/05 07:27:12;;;;;;;12.00;7.60;;;10.20;92.40;;;;;;5053083;28;20037;-40
2022/04/05 07:29:38;;;;;;;12.90;8.13;;;10.20;92.40;;;;;;5052986;28;20503;-39
2022/04/05 07:32:04;;;;;;;11.38;7.90;;;10.20;92.40;;;;;;5052713;28;20482;-40
2022/04/05 07:34:29;;;;;;;12.13;8.07;;;10.30;92.40;;;;;;5052701;28;20040;-39
2022/04/05 07:36:55;;;;;;;9.88;7.38;;;10.30;92.40;;;;;;5052711;28;20029;-40
2022/04/05 07:39:22;;;;;;;10.40;6.97;;;10.30;92.40;;;;;;5052715;28;20025;-41
2022/04/05 07:41:48;;;;;;;10.32;6.72;;;10.30;92.40;;;;;;5052544;28;20541;-40
2022/04/05 07:44:14;;;;;;;8.57;7.05;;;10.30;92.40;;;;;;5052347;28;20029;-40
2022/04/05 07:46:39;;;;;;;12.35;6.90;;;10.40;92.50;;;;;;5052531;28;20380;-40
2022/04/05 07:49:05;;;;;;;10.30;6.60;;;10.50;92.40;;;;;;5052636;28;20484;-40
2022/04/05 07:51:30;;;;;;;10.63;7.32;;;10.50;92.40;;;;;;5056132;28;20028;-39
2022/04/05 07:53:56;;;;;;;8.15;6.97;;;10.50;92.40;;;;;;5056789;28;20104;-41
2022/04/05 07:56:22;;;;;;;8.20;6.63;;;10.60;92.30;;;;;;5056925;28;20032;-40
2022/04/05 07:58:48;;;;;;;12.00;6.80;;;10.60;92.30;;;;;;5056783;28;20045;-40
2022/04/05 08:01:14;;;;;;;10.90;6.43;;;10.60;92.30;;;;;;5056508;28;20025;-40
2022/04/05 08:03:39;;;;;;;11.00;6.50;;;10.60;92.30;;;;;;5056498;28;20032;-40
2022/04/05 08:06:05;;;;;;;8.80;6.82;;;10.60;92.30;;;;;;5056587;28;20036;-40
2022/04/05 08:08:31;;;;;;;9.38;5.80;;;10.60;92.30;;;;;;5056351;28;20033;-41
2022/04/05 08:10:57;;;;;;;7.82;5.57;;;10.60;92.30;;;;;;5056376;28;20104;-40
2022/04/05 08:13:23;;;;;;;8.48;5.90;;;10.50;92.30;;;;;;5056359;28;20029;-41
2022/04/05 08:15:49;;;;;;;7.15;5.10;;;10.60;92.30;;;;;;5056223;28;20052;-40
2022/04/05 08:18:15;;;;;;;7.45;5.28;;;10.60;92.40;;;;;;5056272;28;20021;-41
2022/04/05 08:20:41;;;;;;;8.73;5.88;;;10.60;92.30;;;;;;5056207;28;20494;-40
2022/04/05 08:23:10;;;;;;;6.85;5.20;;;10.60;92.30;;;;;;5056455;28;20029;-39
2022/04/05 08:25:36;;;;;;;8.82;5.53;;;10.60;92.40;;;;;;5055920;28;20036;-40
2022/04/05 08:28:03;;;;;;;6.93;5.32;;;10.60;92.40;;;;;;5056393;28;20021;-40
2022/04/05 08:30:29;;;;;;;7.45;5.15;;;10.60;92.40;;;;;;5055984;28;20480;-39
2022/04/05 08:32:55;;;;;;;6.68;5.22;;;10.70;92.40;;;;;;5055983;28;20028;-40
2022/04/05 08:35:22;;;;;;;6.68;4.65;;;10.70;92.40;;;;;;5055920;28;20108;-40
2022/04/05 08:37:49;;;;;;;6.22;4.82;;;10.80;92.30;;;;;;5056207;28;20033;-41
2022/04/05 08:40:17;;;;;;;7.50;4.95;;;10.80;92.30;;;;;;5055840;28;20551;-38
2022/04/05 08:42:46;;;;;;;5.35;4.55;;;10.80;92.30;;;;;;5055698;28;20099;-41
2022/04/05 08:45:13;;;;;;;5.30;4.45;;;10.80;92.30;;;;;;5055752;28;20032;-39
2022/04/05 08:47:46;;;;;;;7.38;4.75;;;10.90;92.20;;;;;;5055642;28;20021;-40
2022/04/05 08:50:13;;;;;;;7.38;4.47;;;10.90;92.20;;;;;;5055674;28;20032;-40
2022/04/05 08:52:39;;;;;;;5.60;4.18;;;11.00;92.20;;;;;;5055574;28;20032;-40
2022/04/05 08:55:05;;;;;;;8.43;4.90;;;11.00;92.10;;;;;;5055663;28;20033;-39
2022/04/05 08:57:30;;;;;;;6.30;4.57;;;11.00;92.10;;;;;;5055432;28;20040;-40
2022/04/05 08:59:56;;;;;;;7.03;4.65;;;11.00;92.10;;;;;;5055341;28;20049;-41
2022/04/05 09:02:26;;;;;;;6.13;4.57;;;11.10;92.10;;;;;;5055401;28;20029;-40
2022/04/05 09:04:52;;;;;;;6.65;4.60;;;11.10;92.10;;;;;;5055277;28;20071;-40
2022/04/05 09:07:23;;;;;;;5.63;4.40;;;11.10;92.10;;;;;;5055574;28;20025;-39
2022/04/05 09:10:13;;;;;;;5.80;4.38;;;11.20;92.10;;;;;;5055331;28;20032;-39
2022/04/05 09:12:50;;;;;;;5.95;4.10;;;11.20;92.00;;;;;;5055031;28;20500;-39
2022/04/05 09:15:21;;;;;;;7.85;5.00;;;11.30;92.00;;;;;;5055102;28;20029;-39
2022/04/05 09:17:48;;;;;;;7.32;5.00;;;11.40;92.00;;;;;;5054959;28;20047;-40
2022/04/05 09:20:16;;;;;;;7.13;4.60;;;11.40;91.90;;;;;;5055246;28;20469;-39
2022/04/05 09:22:42;;;;;;;5.57;4.35;;;11.50;91.80;;;;;;5055141;28;20028;-39
2022/04/05 09:25:16;;;;;;;7.40;4.97;;;11.50;91.80;;;;;;5054843;28;20025;-39
2022/04/05 09:27:50;;;;;;;6.85;5.05;;;11.50;91.80;;;;;;5053549;28;20424;-38
2022/04/05 09:30:22;;;;;;;6.15;4.78;;;11.60;91.80;;;;;;5054817;28;20438;-38
2022/04/05 09:32:48;;;;;;;4.55;3.80;;;11.60;91.70;;;;;;5054649;28;20029;-39
2022/04/05 09:35:19;;;;;;;5.00;3.90;;;11.60;91.70;;;;;;5054919;28;20033;-39
2022/04/05 09:37:46;;;;;;;7.00;4.60;;;11.60;91.70;;;;;;5054615;28;20045;-39
2022/04/05 09:40:32;;;;;;;8.25;4.63;;;11.70;91.70;;;;;;5054827;28;20074;-40
2022/04/05 09:43:07;;;;;;;6.43;4.30;;;11.70;91.70;;;;;;5054638;28;20472;-38
2022/04/05 09:45:58;;;;;;;7.70;4.68;;;11.80;91.70;;;;;;5054317;28;20040;-38
2022/04/05 09:48:29;;;;;;;6.03;4.18;;;11.90;91.60;;;;;;5054516;28;20074;-39
2022/04/05 09:51:10;;;;;;;7.43;4.70;;;11.90;91.60;;;;;;5054646;28;20435;-39
2022/04/05 09:53:38;;;;;;;8.70;4.50;;;11.90;91.50;;;;;;5054497;28;20392;-38
2022/04/05 09:56:13;;;;;;;6.35;3.92;;;11.80;91.50;;;;;;5054315;28;20033;-39
2022/04/05 09:58:51;;;;;;;7.85;4.28;;;11.70;91.60;;;;;;5054227;28;20039;-39
2022/04/05 10:01:19;;;;;;;5.65;4.00;;;11.70;91.70;;;;;;5054318;28;20060;-39
2022/04/05 10:04:03;;;;;;;5.03;3.63;;;11.60;91.70;;;;;;5053901;28;20041;-39
2022/04/05 10:06:30;;;;;;;6.93;4.45;;;11.60;91.70;;;;;;5054137;28;20032;-38
2022/04/05 10:08:57;;;;;;;6.43;3.33;;;11.60;91.80;;;;;;5054052;28;20017;-39
2022/04/05 10:11:28;;;;;;;5.25;3.80;;;11.60;91.90;;;;;;5054266;28;20025;-39
2022/04/05 10:13:54;;;;;;;4.88;3.70;;;11.70;91.90;;;;;;5053546;28;20396;-39
2022/04/05 10:16:24;;;;;;;5.85;3.92;;;11.70;91.80;;;;;;5053969;28;20025;-39
2022/04/05 10:18:51;;;;;;;7.15;3.95;;;11.80;91.80;;;;;;5054017;28;20044;-39
2022/04/05 10:21:21;;;;;;;4.07;3.60;;;11.70;91.70;;;;;;5053849;28;20025;-40
2022/04/05 10:23:47;;;;;;;3.78;3.20;;;11.70;91.70;;;;;;5053722;28;20485;-39
2022/04/05 10:26:16;;;;;;;3.00;2.70;;;11.70;91.70;;;;;;5053721;28;20504;-39
2022/04/05 10:28:45;;;;;;;3.40;3.03;;;11.70;91.80;;;;;;5053834;28;20025;-39
2022/04/05 10:31:24;;;;;;;4.05;2.55;;;11.60;91.80;;;;;;5053692;28;20021;-39
2022/04/05 10:34:14;;;;;;;3.75;3.08;;;11.60;91.80;;;;;;5053329;28;20106;-39
2022/04/05 10:36:51;;;;;;;2.50;2.30;;;11.70;91.90;;;;;;5053267;28;20082;-38
2022/04/05 10:39:23;;;;;;;3.92;2.95;;;11.70;91.90;;;;;;5053208;28;20037;-38
2022/04/05 10:42:09;;;;;;;3.63;2.93;;;11.80;91.80;;;;;;5053148;28;20402;-38
2022/04/05 10:44:36;;;;;;;4.38;3.80;;;11.70;91.80;;;;;;5052891;28;20029;-39
2022/04/05 10:47:04;;;;;;;4.88;3.88;;;11.70;91.80;;;;;;5053338;28;20424;-38
2022/04/05 10:49:45;;;;;;;6.72;4.03;;;11.70;91.90;;;;;;5052944;28;20051;-39
2022/04/05 10:52:27;;;;;;;5.32;4.18;;;11.70;91.90;;;;;;5052944;28;20389;-40
2022/04/05 10:55:02;;;;;;;6.07;4.50;;;11.90;91.90;;;;;;5053055;28;20068;-40
2022/04/05 10:57:30;;;;;;;4.82;4.15;;;11.90;91.70;;;;;;5052794;28;20044;-38
2022/04/05 11:00:12;;;;;;;6.85;4.68;;;12.00;91.70;;;;;;5052838;28;20492;-40
2022/04/05 11:02:47;;;;;;;4.75;4.07;;;12.00;91.60;;;;;;5052833;28;20108;-39
2022/04/05 11:05:18;;;;;;;5.35;4.30;;;12.00;91.60;;;;;;5053085;28;20473;-39
2022/04/05 11:07:59;;;;;;;5.55;4.68;;;11.90;91.50;;;;;;5053066;28;20025;-40
2022/04/05 11:10:39;;;;;;;5.15;4.40;;;11.90;91.50;;;;;;5052877;28;20458;-39
2022/04/05 11:13:28;;;;;;;7.10;4.93;;;11.90;91.50;;;;;;5053018;28;20029;-39
2022/04/05 11:15:54;;;;;;;5.88;4.60;;;11.80;91.50;;;;;;5052399;28;20045;-40
2022/04/05 11:18:25;;;;;;;7.85;5.60;;;11.80;91.50;;;;;;5052631;28;20052;-39
2022/04/05 11:20:53;;;;;;;7.50;4.95;;;11.80;91.50;;;;;;5052625;28;20033;-39
2022/04/05 11:23:20;;;;;;;6.22;5.00;;;11.70;91.50;;;;;;5051243;28;20477;-38
2022/04/05 11:25:46;;;;;;;7.80;4.70;;;11.70;91.50;;;;;;5052037;28;20423;-40
2022/04/05 11:28:21;;;;;;;7.53;5.13;;;11.70;91.60;;;;;;5052668;28;20025;-40
2022/04/05 11:31:02;;;;;;;7.05;4.97;;;11.70;91.60;;;;;;5052909;28;20017;-40
2022/04/05 11:33:31;;;;;;;7.63;5.60;;;11.70;91.70;;;;;;5052448;28;20021;-41
2022/04/05 11:36:14;;;;;;;7.32;5.13;;;11.70;91.70;;;;;;5051205;28;20033;-39
2022/04/05 11:38:46;;;;;;;7.82;5.35;;;11.60;91.70;;;;;;5052872;28;20078;-40
2022/04/05 11:41:18;;;;;;;6.43;4.90;;;11.50;91.80;;;;;;5052645;28;20033;-40
2022/04/05 11:43:46;;;;;;;7.80;5.43;;;11.50;91.80;;;;;;5052501;28;20055;-40
2022/04/05 11:46:20;;;;;;;7.22;5.38;;;11.60;92.00;;;;;;5052669;28;20033;-40
2022/04/05 11:49:07;;;;;;;7.63;4.85;;;11.60;92.00;;;;;;5051177;28;20075;-40
2022/04/05 11:51:35;;;;;;;4.97;4.10;;;11.70;92.00;;;;;;5052425;28;20017;-38
2022/04/05 11:54:12;;;;;;;5.63;4.60;;;11.80;92.00;;;;;;5052472;28;20435;-39
2022/04/05 11:56:41;;;;;;;4.82;4.30;;;11.90;91.90;;;;;;5052402;28;20043;-39
2022/04/05 11:59:08;;;;;;;6.70;4.85;;;12.00;91.80;;;;;;5052316;28;20045;-41
2022/04/05 12:01:37;;;;;;;7.72;4.97;;;12.10;91.70;;;;;;5052686;28;20029;-40
2022/04/05 12:04:12;;;;;;;5.68;4.30;;;12.10;91.70;;;;;;5052278;28;20501;-42
2022/04/05 12:06:42;;;;;;;5.57;4.32;;;12.10;91.60;;;;;;5052304;28;20025;-40
2022/04/05 12:09:18;;;;;;;6.43;3.90;;;12.10;91.60;;;;;;5051053;28;20476;-40
2022/04/05 12:11:50;;;;;;;5.53;3.95;;;12.20;91.60;;;;;;5052520;28;20108;-41
2022/04/05 12:14:21;;;;;;;5.82;4.18;;;12.20;91.60;;;;;;5052557;28;20033;-40
2022/04/05 12:16:51;;;;;;;5.40;4.25;;;12.30;91.50;;;;;;5052474;28;20075;-41
2022/04/05 12:19:21;;;;;;;6.75;4.70;;;12.30;91.50;;;;;;5052252;28;20025;-41
2022/04/05 12:21:54;;;;;;;6.47;4.60;;;12.30;91.50;;;;;;5052196;28;20040;-41
2022/04/05 12:24:21;;;;;;;7.65;4.70;;;12.30;91.40;;;;;;5052125;28;20029;-40
2022/04/05 12:26:47;;;;;;;8.70;4.43;;;12.30;91.30;;;;;;5050909;28;20496;-40
2022/04/05 12:29:13;;;;;;;7.40;4.47;;;12.30;91.30;;;;;;5052147;28;20027;-41
2022/04/05 12:31:39;;;;;;;5.32;4.10;;;12.40;91.30;;;;;;5052339;28;20123;-41
2022/04/05 12:34:13;;;;;;;7.20;4.50;;;12.40;91.30;;;;;;5052068;28;20143;-40
2022/04/05 12:36:40;;;;;;;6.72;4.22;;;12.50;91.30;;;;;;5053650;28;20083;-40
2022/04/05 12:39:15;;;;;;;6.40;4.30;;;12.50;91.50;;;;;;5055791;28;20032;-41
2022/04/05 12:41:41;;;;;;;6.50;4.43;;;12.50;91.10;;;;;;5055699;28;20048;-42
2022/04/05 12:44:13;;;;;;;6.38;4.50;;;12.50;91.10;;;;;;5055551;28;20020;-40
2022/04/05 12:46:48;;;;;;;6.40;4.47;;;12.50;91.30;;;;;;5055842;28;20021;-40
2022/04/05 12:49:22;;;;;;;5.72;3.85;;;12.50;91.00;;;;;;5055659;28;20021;-41
2022/04/05 12:51:49;;;;;;;6.25;4.20;;;12.50;91.00;;;;;;5055854;28;20117;-42
2022/04/05 12:54:32;;;;;;;6.45;4.57;;;12.50;91.00;;;;;;5055508;28;20036;-41